createdAt,value
2018-06-19T00:01:14.510Z,38.00
2018-06-19T00:03:43.426Z,38.10
2018-06-19T00:06:12.018Z,38.00
2018-06-19T00:08:40.563Z,38.20
2018-06-19T00:11:10.046Z,38.30
2018-06-19T00:13:38.402Z,38.30
2018-06-19T00:16:06.878Z,38.40
2018-06-19T00:18:38.674Z,38.30
2018-06-19T00:21:12.479Z,38.40
2018-06-19T00:23:40.930Z,38.50
2018-06-19T00:26:09.302Z,38.50
2018-06-19T00:28:40.692Z,38.60
2018-06-19T00:31:09.119Z,38.70
2018-06-19T00:33:37.458Z,38.60
2018-06-19T00:36:05.855Z,38.70
2018-06-19T00:38:34.399Z,38.70
2018-06-19T00:41:02.890Z,38.80
2018-06-19T00:43:31.480Z,38.90
2018-06-19T00:46:01.043Z,38.90
2018-06-19T00:48:29.460Z,39.00
2018-06-19T00:50:58.239Z,39.00
2018-06-19T00:53:27.427Z,39.00
2018-06-19T00:56:06.114Z,39.00
2018-06-19T00:58:35.248Z,39.10
2018-06-19T01:01:03.696Z,39.20
2018-06-19T01:03:33.117Z,39.30
2018-06-19T01:06:01.440Z,39.40
2018-06-19T01:08:29.727Z,39.40
2018-06-19T01:10:58.091Z,39.50
2018-06-19T01:13:26.391Z,39.50
2018-06-19T01:15:54.792Z,39.60
2018-06-19T01:18:23.114Z,39.70
2018-06-19T01:20:51.414Z,40.20
2018-06-19T01:23:19.862Z,39.80
2018-06-19T01:25:48.254Z,39.80
2018-06-19T01:28:16.662Z,39.70
2018-06-19T01:30:45.178Z,39.80
2018-06-19T01:33:13.540Z,39.80
2018-06-19T01:35:42.334Z,39.80
2018-06-19T01:38:10.703Z,40.50
2018-06-19T01:40:39.139Z,39.40
2018-06-19T01:43:07.561Z,40.00
2018-06-19T01:45:35.869Z,40.00
2018-06-19T01:48:04.268Z,40.10
2018-06-19T01:50:33.264Z,40.10
2018-06-19T01:53:01.735Z,40.10
2018-06-19T01:55:30.074Z,40.20
2018-06-19T01:57:58.456Z,40.40
2018-06-19T02:00:27.006Z,40.40
2018-06-19T02:02:55.398Z,40.40
2018-06-19T02:07:51.949Z,40.50
2018-06-19T02:10:20.350Z,40.50
2018-06-19T02:12:48.712Z,40.60
2018-06-19T02:15:17.158Z,40.70
2018-06-19T02:17:45.743Z,40.70
2018-06-19T02:20:14.142Z,40.80
2018-06-19T02:22:42.561Z,40.90
2018-06-19T02:25:11.099Z,40.70
2018-06-19T02:27:40.228Z,40.80
2018-06-19T02:30:08.568Z,40.80
2018-06-19T02:32:37.009Z,40.80
2018-06-19T02:35:05.432Z,40.80
2018-06-19T02:37:33.771Z,41.00
2018-06-19T02:40:02.123Z,41.10
2018-06-19T02:42:30.458Z,41.20
2018-06-19T02:44:59.011Z,41.30
2018-06-19T02:47:34.071Z,41.40
2018-06-19T02:50:02.407Z,41.60
2018-06-19T02:52:30.769Z,41.70
2018-06-19T02:54:59.200Z,41.80
2018-06-19T02:57:27.611Z,41.80
2018-06-19T02:59:55.967Z,41.90
2018-06-19T03:02:24.324Z,41.90
2018-06-19T03:04:52.759Z,41.90
2018-06-19T03:07:21.259Z,41.90
2018-06-19T03:09:49.679Z,41.90
2018-06-19T03:13:21.251Z,41.80
2018-06-19T03:15:49.639Z,41.90
2018-06-19T03:18:18.080Z,41.70
2018-06-19T03:20:47.028Z,41.80
2018-06-19T03:23:15.536Z,42.10
2018-06-19T03:28:12.104Z,42.10
2018-06-19T03:30:40.444Z,42.10
2018-06-19T03:33:08.881Z,42.20
2018-06-19T03:35:37.349Z,42.20
2018-06-19T03:38:05.767Z,42.30
2018-06-19T03:40:34.155Z,42.30
2018-06-19T03:43:02.508Z,43.20
2018-06-19T03:45:30.876Z,42.10
2018-06-19T03:47:59.280Z,42.50
2018-06-19T03:50:27.687Z,42.60
2018-06-19T03:52:56.035Z,42.70
2018-06-19T03:55:24.653Z,42.60
2018-06-19T03:57:53.238Z,43.30
2018-06-19T04:00:21.725Z,42.80
2018-06-19T04:02:50.201Z,42.90
2018-06-19T04:05:18.642Z,43.10
2018-06-19T04:07:47.260Z,43.70
2018-06-19T04:10:15.667Z,43.20
2018-06-19T04:12:44.193Z,43.20
2018-06-19T04:15:12.644Z,43.30
2018-06-19T04:17:41.005Z,43.40
2018-06-19T04:20:09.324Z,43.40
2018-06-19T04:22:37.735Z,43.50
2018-06-19T04:25:06.230Z,43.50
2018-06-19T04:27:34.682Z,43.60
2018-06-19T04:30:03.040Z,43.70
2018-06-19T04:37:28.068Z,43.80
2018-06-19T04:39:56.464Z,43.80
2018-06-19T04:42:24.817Z,43.90
2018-06-19T04:44:53.122Z,44.10
2018-06-19T04:47:21.523Z,44.00
2018-06-19T04:49:50.086Z,44.10
2018-06-19T04:52:18.459Z,44.10
2018-06-19T04:54:46.775Z,44.10
2018-06-19T04:57:15.150Z,44.20
2018-06-19T04:59:43.453Z,44.20
2018-06-19T05:02:11.802Z,44.20
2018-06-19T05:04:40.196Z,44.30
2018-06-19T05:07:08.520Z,44.50
2018-06-19T05:12:05.133Z,44.60
2018-06-19T05:14:33.552Z,44.50
2018-06-19T05:17:01.945Z,44.70
2018-06-19T05:19:30.469Z,44.70
2018-06-19T05:21:58.925Z,45.00
2018-06-19T05:24:27.411Z,44.80
2018-06-19T05:26:55.776Z,45.10
2018-06-19T05:29:24.138Z,45.40
2018-06-19T05:31:52.505Z,45.30
2018-06-19T05:34:21.269Z,45.40
2018-06-19T05:36:50.942Z,45.10
2018-06-19T05:39:19.415Z,45.40
2018-06-19T05:41:47.847Z,45.70
2018-06-19T05:44:16.221Z,45.60
2018-06-19T05:46:44.630Z,45.80
2018-06-19T05:49:12.976Z,45.60
2018-06-19T05:51:41.339Z,45.60
2018-06-19T05:56:38.870Z,45.40
2018-06-19T05:59:07.213Z,45.60
2018-06-19T06:01:35.624Z,45.80
2018-06-19T06:04:04.036Z,45.80
2018-06-19T06:06:32.553Z,45.70
2018-06-19T06:09:00.926Z,45.70
2018-06-19T06:11:29.348Z,45.60
2018-06-19T06:13:57.709Z,45.50
2018-06-19T06:16:26.365Z,45.60
2018-06-19T06:18:54.707Z,45.70
2018-06-19T06:21:23.047Z,45.70
2018-06-19T06:23:51.591Z,45.60
2018-06-19T06:26:19.989Z,45.70
2018-06-19T06:28:48.371Z,45.70
2018-06-19T06:31:16.913Z,45.90
2018-06-19T06:33:45.362Z,45.70
2018-06-19T06:36:13.688Z,45.80
2018-06-19T06:38:42.018Z,45.60
2018-06-19T06:41:10.331Z,45.50
2018-06-19T06:43:38.684Z,45.60
2018-06-19T06:46:06.967Z,45.50
2018-06-19T06:48:35.361Z,45.50
2018-06-19T06:51:03.657Z,45.50
2018-06-19T06:53:32.011Z,45.50
2018-06-19T06:56:00.415Z,45.40
2018-06-19T06:58:28.851Z,45.60
2018-06-19T07:00:57.261Z,45.50
2018-06-19T07:03:25.633Z,45.50
2018-06-19T07:05:54.441Z,45.60
2018-06-19T07:08:22.814Z,45.60
2018-06-19T07:10:51.178Z,45.50
2018-06-19T07:13:26.497Z,45.60
2018-06-19T07:15:55.712Z,45.80
2018-06-19T07:18:24.194Z,45.80
2018-06-19T07:20:52.620Z,45.90
2018-06-19T07:23:20.922Z,45.70
2018-06-19T07:25:56.106Z,45.40
2018-06-19T07:28:24.475Z,45.30
2018-06-19T07:30:52.892Z,45.30
2018-06-19T07:33:21.358Z,45.20
2018-06-19T07:35:49.687Z,45.20
2018-06-19T07:38:18.109Z,45.40
2018-06-19T07:40:46.842Z,45.40
2018-06-19T07:43:18.155Z,45.40
2018-06-19T07:45:46.508Z,45.40
2018-06-19T07:48:14.898Z,45.50
2018-06-19T07:50:43.516Z,45.90
2018-06-19T07:53:11.990Z,46.50
2018-06-19T07:55:40.373Z,46.60
2018-06-19T07:58:08.730Z,46.40
2018-06-19T08:00:37.042Z,46.20
2018-06-19T08:03:05.531Z,46.30
2018-06-19T08:05:33.856Z,46.80
2018-06-19T08:08:02.261Z,47.30
2018-06-19T08:10:30.667Z,48.10
2018-06-19T08:12:59.173Z,47.50
2018-06-19T08:15:27.660Z,47.50
2018-06-19T08:17:56.052Z,47.30
2018-06-19T08:20:24.430Z,47.20
2018-06-19T08:22:52.873Z,47.00
2018-06-19T08:25:21.446Z,46.20
2018-06-19T08:27:49.918Z,44.50
2018-06-19T08:30:18.271Z,42.90
2018-06-19T08:32:46.731Z,42.90
2018-06-19T08:35:15.136Z,43.40
2018-06-19T08:37:43.568Z,43.60
2018-06-19T08:40:11.995Z,43.80
2018-06-19T08:42:40.342Z,43.30
2018-06-19T08:45:08.655Z,42.60
2018-06-19T08:47:36.992Z,41.40
2018-06-19T08:50:05.511Z,40.10
2018-06-19T08:52:33.908Z,38.40
2018-06-19T08:55:02.481Z,38.30
2018-06-19T08:57:30.887Z,38.60
2018-06-19T08:59:59.317Z,38.40
2018-06-19T09:02:27.780Z,37.30
2018-06-19T09:04:56.662Z,37.20
2018-06-19T09:07:25.198Z,37.90
2018-06-19T09:09:53.593Z,38.60
2018-06-19T09:12:21.925Z,38.30
2018-06-19T09:14:50.360Z,37.10
2018-06-19T09:17:18.650Z,35.70
2018-06-19T09:19:46.968Z,34.50
2018-06-19T09:22:15.256Z,33.70
2018-06-19T09:24:43.980Z,33.30
2018-06-19T09:27:12.392Z,34.10
2018-06-19T09:29:40.812Z,33.40
2018-06-19T09:32:09.210Z,33.60
2018-06-19T09:34:37.563Z,33.50
2018-06-19T09:37:06.440Z,33.30
2018-06-19T09:39:34.909Z,33.20
2018-06-19T09:42:03.331Z,32.90
2018-06-19T09:44:31.738Z,32.90
2018-06-19T09:47:00.143Z,33.00
2018-06-19T09:49:28.615Z,33.00
2018-06-19T09:51:57.321Z,33.10
2018-06-19T09:54:26.132Z,33.00
2018-06-19T09:56:54.826Z,33.20
2018-06-19T09:59:23.617Z,33.40
2018-06-19T10:01:52.667Z,33.60
2018-06-19T10:04:21.141Z,33.70
2018-06-19T10:06:49.536Z,33.80
2018-06-19T10:09:18.029Z,34.00
2018-06-19T10:11:46.439Z,33.90
2018-06-19T10:14:14.751Z,33.70
2018-06-19T10:16:43.148Z,33.70
2018-06-19T10:19:11.577Z,33.60
2018-06-19T10:21:39.969Z,33.60
2018-06-19T10:24:08.348Z,33.60
2018-06-19T10:26:36.698Z,33.60
2018-06-19T10:29:05.012Z,33.60
2018-06-19T10:31:33.433Z,33.80
2018-06-19T10:34:01.818Z,34.00
2018-06-19T10:36:30.252Z,34.10
2018-06-19T10:38:58.794Z,34.20
2018-06-19T10:41:27.173Z,34.30
2018-06-19T10:43:55.730Z,34.10
2018-06-19T10:46:24.587Z,34.20
2018-06-19T10:48:53.112Z,34.20
2018-06-19T10:51:21.658Z,34.30
2018-06-19T10:53:50.013Z,34.20
2018-06-19T10:56:18.411Z,34.40
2018-06-19T10:58:46.777Z,34.50
2018-06-19T11:01:15.076Z,34.60
2018-06-19T11:03:43.427Z,34.60
2018-06-19T11:06:11.744Z,34.50
2018-06-19T11:08:42.369Z,34.50
2018-06-19T11:11:11.613Z,34.40
2018-06-19T11:13:40.025Z,34.40
2018-06-19T11:16:08.416Z,34.40
2018-06-19T11:18:36.832Z,34.40
2018-06-19T11:21:05.455Z,34.50
2018-06-19T11:23:33.789Z,34.60
2018-06-19T11:26:02.200Z,34.60
2018-06-19T11:28:30.703Z,34.60
2018-06-19T11:30:59.390Z,34.40
2018-06-19T11:33:27.780Z,34.30
2018-06-19T11:35:56.183Z,34.10
2018-06-19T11:38:26.195Z,33.90
2018-06-19T11:40:54.786Z,33.80
2018-06-19T11:43:23.202Z,33.70
2018-06-19T11:45:51.616Z,33.60
2018-06-19T11:48:20.002Z,33.60
2018-06-19T11:50:48.280Z,33.50
2018-06-19T11:53:16.598Z,33.60
2018-06-19T11:55:44.875Z,33.60
2018-06-19T11:58:13.224Z,33.70
2018-06-19T12:00:41.559Z,33.80
2018-06-19T12:03:09.934Z,33.90
2018-06-19T12:05:39.819Z,33.90
2018-06-19T12:08:08.301Z,34.00
2018-06-19T12:10:36.709Z,33.90
2018-06-19T12:13:05.241Z,33.90
2018-06-19T12:15:33.532Z,33.60
2018-06-19T12:18:01.869Z,33.40
2018-06-19T12:22:58.836Z,33.30
2018-06-19T12:25:27.219Z,33.90
2018-06-19T12:27:55.627Z,36.10
2018-06-19T12:30:23.919Z,36.70
2018-06-19T12:32:52.307Z,37.40
2018-06-19T12:35:20.607Z,36.40
2018-06-19T12:37:49.145Z,35.20
2018-06-19T12:40:17.484Z,35.20
2018-06-19T12:42:46.026Z,35.30
2018-06-19T12:45:14.455Z,35.10
2018-06-19T12:47:42.852Z,34.10
2018-06-19T12:50:33.930Z,32.60
2018-06-19T12:53:14.342Z,31.20
2018-06-19T12:55:54.333Z,30.00
2018-06-19T12:58:22.774Z,29.30
2018-06-19T13:00:51.207Z,28.90
2018-06-19T13:03:31.011Z,28.70
2018-06-19T13:06:10.805Z,28.50
2018-06-19T13:08:39.235Z,28.60
2018-06-19T13:11:08.268Z,29.00
2018-06-19T13:13:47.994Z,29.10
2018-06-19T13:16:27.871Z,28.70
2018-06-19T13:19:07.774Z,28.30
2018-06-19T13:21:36.227Z,28.10
2018-06-19T13:24:04.857Z,27.90
2018-06-19T13:26:33.259Z,27.80
2018-06-19T13:29:40.405Z,27.70
2018-06-19T13:32:08.779Z,27.70
2018-06-19T13:34:37.726Z,27.90
2018-06-19T13:37:06.575Z,27.90
2018-06-19T13:39:35.694Z,28.00
2018-06-19T13:42:16.534Z,28.10
2018-06-19T13:44:58.527Z,28.30
2018-06-19T13:47:27.166Z,28.40
2018-06-19T13:49:55.728Z,28.50
2018-06-19T13:52:24.042Z,28.50
2018-06-19T13:54:52.562Z,28.50
2018-06-19T13:57:33.646Z,28.30
2018-06-19T14:00:04.331Z,28.20
2018-06-19T14:02:32.999Z,28.20
2018-06-19T14:05:02.313Z,28.30
2018-06-19T14:07:33.130Z,28.30
2018-06-19T14:10:20.232Z,28.30
2018-06-19T14:13:03.935Z,28.30
2018-06-19T14:15:39.252Z,28.00
2018-06-19T14:18:08.001Z,28.10
2018-06-19T14:20:36.543Z,28.10
2018-06-19T14:23:05.050Z,28.00
2018-06-19T14:25:33.519Z,28.00
2018-06-19T14:28:02.108Z,28.00
2018-06-19T14:30:30.884Z,28.00
2018-06-19T14:32:59.336Z,28.00
2018-06-19T14:35:27.707Z,28.00
2018-06-19T14:37:56.181Z,28.00
2018-06-19T14:40:24.651Z,28.10
2018-06-19T14:42:53.185Z,28.10
2018-06-19T14:45:21.483Z,28.10
2018-06-19T14:47:49.907Z,28.20
2018-06-19T14:50:18.387Z,28.30
2018-06-19T14:52:46.804Z,28.30
2018-06-19T14:55:15.297Z,28.40
2018-06-19T14:57:43.629Z,28.40
2018-06-19T15:00:12.420Z,28.90
2018-06-19T15:02:40.862Z,28.50
2018-06-19T15:05:09.351Z,28.50
2018-06-19T15:07:43.171Z,28.50
2018-06-19T15:10:11.473Z,28.70
2018-06-19T15:12:39.814Z,28.80
2018-06-19T15:15:08.360Z,29.10
2018-06-19T15:17:36.668Z,28.90
2018-06-19T15:20:05.355Z,29.00
2018-06-19T15:22:33.787Z,29.00
2018-06-19T15:25:02.275Z,29.10
2018-06-19T15:27:30.895Z,29.20
2018-06-19T15:29:59.403Z,29.20
2018-06-19T15:32:27.786Z,29.20
2018-06-19T15:34:56.195Z,29.30
2018-06-19T15:37:25.282Z,29.30
2018-06-19T15:39:53.679Z,29.40
2018-06-19T15:42:22.100Z,29.40
2018-06-19T15:44:50.410Z,29.50
2018-06-19T15:47:18.704Z,29.60
2018-06-19T15:49:47.379Z,29.80
2018-06-19T15:52:15.935Z,29.80
2018-06-19T15:54:44.255Z,29.80
2018-06-19T15:57:12.587Z,29.80
2018-06-19T15:59:41.010Z,29.70
2018-06-19T16:02:09.447Z,29.80
2018-06-19T16:04:37.855Z,29.80
2018-06-19T16:07:06.245Z,30.20
2018-06-19T16:09:34.603Z,29.70
2018-06-19T16:12:02.903Z,29.70
2018-06-19T16:14:31.412Z,29.60
2018-06-19T16:16:59.829Z,29.60
2018-06-19T16:19:28.264Z,29.50
2018-06-19T16:21:56.611Z,29.50
2018-06-19T16:24:25.512Z,29.50
2018-06-19T16:26:54.546Z,29.50
2018-06-19T16:29:23.250Z,29.50
2018-06-19T16:31:56.314Z,29.50
2018-06-19T16:34:25.155Z,29.50
2018-06-19T16:36:53.618Z,29.60
2018-06-19T16:39:21.988Z,29.70
2018-06-19T16:41:50.397Z,29.70
2018-06-19T16:44:18.763Z,29.70
2018-06-19T16:46:47.094Z,29.80
2018-06-19T16:49:15.505Z,29.80
2018-06-19T16:51:44.062Z,29.80
2018-06-19T16:54:12.723Z,29.80
2018-06-19T16:56:41.141Z,29.40
2018-06-19T16:59:10.407Z,29.80
2018-06-19T17:01:38.928Z,29.80
2018-06-19T17:04:07.486Z,29.90
2018-06-19T17:06:36.028Z,29.90
2018-06-19T17:09:07.327Z,29.80
2018-06-19T17:14:04.668Z,29.90
2018-06-19T17:16:33.857Z,30.00
2018-06-19T17:19:03.093Z,30.00
2018-06-19T17:21:32.361Z,30.00
2018-06-19T17:24:01.613Z,30.00
2018-06-19T17:26:30.251Z,30.00
2018-06-19T17:28:59.189Z,30.10
2018-06-19T17:31:27.761Z,30.00
2018-06-19T17:33:56.683Z,30.10
2018-06-19T17:36:25.208Z,30.20
2018-06-19T17:38:53.658Z,30.30
2018-06-19T17:41:21.975Z,30.40
2018-06-19T17:43:50.323Z,30.40
2018-06-19T17:46:18.623Z,30.50
2018-06-19T17:48:46.944Z,30.60
2018-06-19T17:51:15.299Z,30.70
2018-06-19T17:53:43.928Z,30.80
2018-06-19T17:56:12.558Z,30.80
2018-06-19T17:58:40.966Z,30.90
2018-06-19T18:01:09.324Z,30.90
2018-06-19T18:03:40.653Z,30.90
2018-06-19T18:06:09.060Z,30.90
2018-06-19T18:08:37.471Z,31.00
2018-06-19T18:11:06.323Z,31.00
2018-06-19T18:13:34.854Z,31.00
2018-06-19T18:16:03.344Z,31.20
2018-06-19T18:18:31.935Z,31.20
2018-06-19T18:21:00.251Z,31.30
2018-06-19T18:23:28.599Z,31.30
2018-06-19T18:25:57.011Z,31.40
2018-06-19T18:28:25.803Z,31.60
2018-06-19T18:30:54.189Z,31.60
2018-06-19T18:33:22.558Z,31.70
2018-06-19T18:35:50.820Z,31.80
2018-06-19T18:38:19.278Z,31.90
2018-06-19T18:40:48.866Z,31.90
2018-06-19T18:43:17.311Z,32.00
2018-06-19T18:45:45.945Z,32.00
2018-06-19T18:48:14.338Z,32.10
2018-06-19T18:50:42.752Z,32.20
2018-06-19T18:53:11.710Z,32.20
2018-06-19T18:55:40.308Z,32.30
2018-06-19T18:58:09.058Z,32.30
2018-06-19T19:00:38.866Z,32.40
2018-06-19T19:03:07.610Z,32.40
2018-06-19T19:05:37.308Z,32.40
2018-06-19T19:08:06.782Z,32.60
2018-06-19T19:10:40.530Z,32.70
2018-06-19T19:13:09.308Z,32.80
2018-06-19T19:15:44.859Z,32.80
2018-06-19T19:18:18.728Z,32.90
2018-06-19T19:20:47.147Z,33.00
2018-06-19T19:23:15.791Z,33.10
2018-06-19T19:25:44.245Z,33.20
2018-06-19T19:30:46.410Z,33.40
2018-06-19T19:33:15.385Z,33.40
2018-06-19T19:35:43.919Z,33.50
2018-06-19T19:38:17.969Z,33.50
2018-06-19T19:40:46.527Z,33.50
2018-06-19T19:43:15.997Z,33.60
2018-06-19T19:45:44.488Z,33.70
2018-06-19T19:48:18.174Z,33.70
2018-06-19T19:50:46.798Z,33.80
2018-06-19T19:53:15.359Z,34.00
2018-06-19T19:56:50.093Z,34.00
2018-06-19T19:59:18.588Z,34.20
2018-06-19T20:01:48.281Z,34.30
2018-06-19T20:04:16.728Z,34.50
2018-06-19T20:06:46.458Z,34.70
2018-06-19T20:09:14.875Z,34.70
2018-06-19T20:11:43.605Z,34.90
2018-06-19T20:14:12.194Z,35.00
2018-06-19T20:16:41.459Z,35.10
2018-06-19T20:19:10.256Z,35.20
2018-06-19T20:21:39.042Z,35.30
2018-06-19T20:24:07.559Z,35.40
2018-06-19T20:26:36.168Z,35.50
2018-06-19T20:29:04.704Z,35.70
2018-06-19T20:31:33.168Z,35.70
2018-06-19T20:34:01.512Z,35.90
2018-06-19T20:36:29.927Z,36.00
2018-06-19T20:38:58.342Z,36.00
2018-06-19T20:41:26.752Z,36.20
2018-06-19T20:43:55.093Z,36.30
2018-06-19T20:46:23.455Z,36.40
2018-06-19T20:48:51.953Z,36.40
2018-06-19T20:51:20.315Z,36.40
2018-06-19T20:53:48.834Z,36.50
2018-06-19T20:56:17.153Z,36.60
2018-06-19T20:58:45.643Z,36.60
2018-06-19T21:01:14.195Z,36.70
2018-06-19T21:03:43.516Z,36.70
2018-06-19T21:06:12.707Z,36.80
2018-06-19T21:08:42.370Z,36.80
2018-06-19T21:11:13.229Z,36.80
2018-06-19T21:13:41.712Z,36.90
2018-06-19T21:16:10.772Z,36.90
2018-06-19T21:18:39.733Z,37.00
2018-06-19T21:21:08.687Z,37.10
2018-06-19T21:23:38.235Z,37.10
2018-06-19T21:26:06.807Z,37.20
2018-06-19T21:28:35.427Z,37.30
2018-06-19T21:31:03.911Z,37.40
2018-06-19T21:33:33.612Z,37.50
2018-06-19T21:36:02.792Z,37.60
2018-06-19T21:38:31.284Z,37.80
2018-06-19T21:41:00.367Z,37.90
2018-06-19T21:43:28.831Z,38.00
2018-06-19T21:45:57.562Z,38.10
2018-06-19T21:48:26.143Z,38.10
2018-06-19T21:50:54.747Z,38.90
2018-06-19T21:53:23.140Z,38.30
2018-06-19T21:55:51.618Z,38.40
2018-06-19T21:58:19.989Z,38.50
2018-06-19T22:00:48.424Z,38.50
2018-06-19T22:03:16.970Z,38.60
2018-06-19T22:05:45.525Z,38.60
2018-06-19T22:10:42.105Z,38.80
2018-06-19T22:13:10.528Z,38.80
2018-06-19T22:15:39.031Z,39.00
2018-06-19T22:18:07.450Z,39.00
2018-06-19T22:20:35.818Z,39.10
2018-06-19T22:23:04.232Z,39.30
2018-06-19T22:25:32.884Z,39.40
2018-06-19T22:28:01.338Z,39.40
2018-06-19T22:30:29.880Z,39.60
2018-06-19T22:32:58.295Z,39.60
2018-06-19T22:35:26.794Z,39.60
2018-06-19T22:37:55.419Z,39.70
2018-06-19T22:40:23.927Z,39.70
2018-06-19T22:42:52.653Z,39.70
2018-06-19T22:45:21.080Z,39.80
2018-06-19T22:47:49.479Z,39.80
2018-06-19T22:50:17.794Z,39.90
2018-06-19T22:52:46.285Z,40.00
2018-06-19T22:55:14.935Z,39.60
2018-06-19T22:57:43.359Z,40.10
2018-06-19T23:00:13.492Z,40.10
2018-06-19T23:02:41.939Z,40.10
2018-06-19T23:05:10.297Z,40.10
2018-06-19T23:07:38.634Z,40.10
2018-06-19T23:10:07.135Z,40.10
2018-06-19T23:12:35.967Z,40.10
2018-06-19T23:15:04.803Z,40.20
2018-06-19T23:17:33.254Z,40.10
2018-06-19T23:20:01.699Z,40.20
2018-06-19T23:22:30.015Z,40.20
2018-06-19T23:24:58.792Z,40.20
2018-06-19T23:27:27.247Z,40.30
2018-06-19T23:29:55.664Z,40.40
2018-06-19T23:32:24.159Z,40.40
2018-06-19T23:34:52.691Z,41.10
2018-06-19T23:37:21.348Z,40.50
2018-06-19T23:39:50.181Z,40.60
2018-06-19T23:42:18.576Z,40.60
2018-06-19T23:44:47.086Z,40.60
2018-06-19T23:47:15.704Z,40.70
2018-06-19T23:49:44.127Z,40.70
2018-06-19T23:52:12.641Z,40.80
2018-06-19T23:54:41.114Z,40.80
2018-06-19T23:57:09.415Z,40.90
2018-06-19T23:59:37.751Z,41.00
